Time;durP1;ratioP1;P1;durP2;ratioP2;P2;SDS_P1;SDS_P2;PMS_P1;PMS_P2;Temp;Humidity;BMP_temperature;BMP_pressure;BME280_temperature;BME280_humidity;BME280_pressure;Samples;Min_cycle;Max_cycle;Signal;HPM_P1;HPM_P2
2021/07/27 00:02:03;;;;;;;23.87;15.90;;;;;;;22.49;60.04;98616.08;125553;1097;103428;-74
2021/07/27 00:04:32;;;;;;;29.77;17.53;;;;;;;22.51;59.98;98605.88;125461;1098;103015;-73
2021/07/27 00:07:00;;;;;;;25.77;16.07;;;;;;;22.51;59.82;98611.30;125475;1095;102948;-73
2021/07/27 00:09:28;;;;;;;25.73;16.30;;;;;;;22.50;59.75;98606.06;125452;1096;102920;-74
2021/07/27 00:11:57;;;;;;;26.60;16.50;;;;;;;22.50;59.72;98608.77;125428;1095;102918;-74
2021/07/27 00:14:25;;;;;;;27.93;16.67;;;;;;;22.49;60.17;98607.95;125474;1096;103017;-75
2021/07/27 00:16:54;;;;;;;26.60;15.63;;;;;;;22.44;59.96;98602.30;125486;1096;103012;-75
2021/07/27 00:19:23;;;;;;;27.20;17.53;;;;;;;22.33;60.05;98600.11;125514;1096;103041;-75
2021/07/27 00:21:51;;;;;;;29.77;16.70;;;;;;;22.27;60.06;98590.91;125432;1096;103028;-75
2021/07/27 00:24:25;;;;;;;25.00;16.77;;;;;;;22.23;60.34;98593.17;125390;1097;103032;-74
2021/07/27 00:26:55;;;;;;;29.73;16.63;;;;;;;22.18;60.14;98583.98;125482;1096;102915;-74
2021/07/27 00:29:23;;;;;;;25.77;16.07;;;;;;;22.14;60.52;98580.84;125401;1100;103128;-74
2021/07/27 00:31:52;;;;;;;25.63;15.13;;;;;;;22.12;60.07;98585.63;125491;1096;102924;-75
2021/07/27 00:34:20;;;;;;;24.63;16.00;;;;;;;22.09;60.75;98578.71;125441;1096;103099;-74
2021/07/27 00:36:48;;;;;;;26.47;14.60;;;;;;;22.06;60.64;98578.28;125440;1096;103096;-73
2021/07/27 00:39:17;;;;;;;26.80;14.87;;;;;;;22.01;60.57;98579.71;125445;1096;103374;-73
2021/07/27 00:41:45;;;;;;;25.70;14.37;;;;;;;22.00;60.50;98571.80;125458;1096;102930;-74
2021/07/27 00:44:14;;;;;;;24.20;14.73;;;;;;;21.94;60.81;98567.17;125493;1096;103032;-73
2021/07/27 00:46:42;;;;;;;24.60;14.60;;;;;;;21.89;60.80;98564.22;125455;1095;102939;-74
2021/07/27 00:49:12;;;;;;;26.77;15.83;;;;;;;21.88;60.52;98568.78;125436;1096;103164;-74
2021/07/27 00:51:41;;;;;;;25.13;14.90;;;;;;;21.86;61.04;98571.70;125463;1096;103004;-73
2021/07/27 00:54:11;;;;;;;25.33;14.70;;;;;;;21.86;60.94;98568.14;125371;1096;103026;-72
2021/07/27 00:56:39;;;;;;;29.87;15.80;;;;;;;21.88;61.04;98570.66;125446;1095;102916;-72
2021/07/27 00:59:09;;;;;;;27.00;15.83;;;;;;;21.87;60.86;98561.69;125461;1096;102940;-73
2021/07/27 01:01:37;;;;;;;23.60;14.90;;;;;;;21.84;61.39;98567.50;125448;1095;103396;-73
2021/07/27 01:04:06;;;;;;;27.83;15.93;;;;;;;21.85;61.06;98570.02;125439;1096;102942;-73
2021/07/27 01:06:34;;;;;;;27.87;15.70;;;;;;;21.89;61.01;98572.34;125394;1095;103044;-73
2021/07/27 01:09:02;;;;;;;25.70;14.67;;;;;;;21.91;61.17;98579.22;125446;1096;103971;-73
2021/07/27 01:11:31;;;;;;;21.90;13.50;;;;;;;21.92;61.40;98578.19;125511;1096;103023;-74
2021/07/27 01:13:59;;;;;;;23.20;13.40;;;;;;;21.95;61.43;98574.27;125492;1096;103001;-72
2021/07/27 01:16:31;;;;;;;27.20;14.37;;;;;;;21.95;61.30;98585.91;125484;1096;102935;-73
2021/07/27 01:44:04;;;;;;;27.37;15.57;;;;;;;22.13;61.45;98581.88;125389;1096;102955;-75
2021/07/27 01:46:36;;;;;;;26.20;16.97;;;;;;;22.14;61.90;98581.66;125390;1097;102920;-72
2021/07/27 01:49:06;;;;;;;27.43;17.77;;;;;;;22.16;62.11;98592.31;125475;1097;103137;-73
2021/07/27 01:51:46;;;;;;;26.57;16.57;;;;;;;22.15;61.99;98596.06;125398;1097;103109;-74
2021/07/27 01:54:16;;;;;;;27.65;15.95;;;;;;;22.16;62.03;98608.56;125405;1096;102919;-74
2021/07/27 01:56:47;;;;;;;25.40;15.93;;;;;;;22.14;62.07;98622.29;125468;1097;103170;-72
2021/07/27 01:59:15;;;;;;;24.70;14.50;;;;;;;22.07;62.00;98628.70;125424;1096;102997;-73
2021/07/27 02:01:43;;;;;;;24.37;14.43;;;;;;;22.01;62.24;98630.31;125717;1095;102916;-75
2021/07/27 02:04:12;;;;;;;22.27;14.73;;;;;;;21.97;61.78;98634.47;125467;1096;103009;-74
2021/07/27 02:06:41;;;;;;;28.47;15.93;;;;;;;21.94;62.17;98637.56;125446;1095;103076;-72
2021/07/27 02:09:10;;;;;;;24.03;15.93;;;;;;;21.91;62.25;98646.08;125483;1096;103014;-74
2021/07/27 02:11:43;;;;;;;28.70;16.87;;;;;;;21.88;61.90;98646.47;125464;1096;103007;-74
2021/07/27 02:14:16;;;;;;;28.03;15.93;;;;;;;21.84;61.96;98640.59;125462;1096;102975;-74
2021/07/27 02:16:45;;;;;;;26.53;17.07;;;;;;;21.79;62.55;98629.53;125460;1096;103431;-75
2021/07/27 02:19:13;;;;;;;36.20;18.37;;;;;;;21.78;62.27;98641.39;125376;1099;103361;-74
2021/07/27 02:21:41;;;;;;;30.03;16.57;;;;;;;21.78;62.63;98635.98;125464;1097;103316;-73
2021/07/27 02:24:11;;;;;;;29.87;16.57;;;;;;;21.77;62.36;98639.72;125447;1097;102923;-73
2021/07/27 02:26:41;;;;;;;27.40;16.70;;;;;;;21.76;62.23;98641.57;125497;1096;103037;-74
2021/07/27 02:29:14;;;;;;;29.47;17.20;;;;;;;21.76;62.51;98636.16;125568;1096;103104;-73
2021/07/27 02:31:43;;;;;;;25.90;16.27;;;;;;;21.79;62.63;98640.36;125433;1097;103467;-73
2021/07/27 02:34:11;;;;;;;26.37;17.20;;;;;;;21.79;62.44;98641.19;125570;1096;102929;-74
2021/07/27 02:36:40;;;;;;;28.33;16.60;;;;;;;21.79;62.91;98646.59;125431;1096;103017;-74
2021/07/27 02:39:08;;;;;;;31.27;16.67;;;;;;;21.79;62.73;98654.72;125441;1097;103035;-73
2021/07/27 02:41:37;;;;;;;28.77;15.93;;;;;;;21.78;62.77;98647.63;125602;1097;103397;-74
2021/07/27 02:44:06;;;;;;;23.97;15.70;;;;;;;21.78;63.00;98650.34;125580;1096;103071;-74
2021/07/27 02:46:34;;;;;;;26.57;16.43;;;;;;;21.78;62.98;98646.81;125608;1096;103424;-74
2021/07/27 02:49:04;;;;;;;25.93;16.27;;;;;;;21.79;63.18;98646.59;125591;1095;102991;-73
2021/07/27 02:51:33;;;;;;;35.40;16.77;;;;;;;21.80;63.10;98650.98;125499;1097;102891;-72
2021/07/27 02:54:02;;;;;;;26.37;16.27;;;;;;;21.79;62.75;98654.72;125517;1096;103104;-74
2021/07/27 02:56:30;;;;;;;23.90;15.93;;;;;;;21.78;62.95;98654.93;125407;1097;103022;-75
2021/07/27 02:58:58;;;;;;;25.80;16.93;;;;;;;21.77;63.02;98653.25;125432;1096;102980;-73
2021/07/27 03:01:27;;;;;;;32.25;16.90;;;;;;;21.78;63.29;98641.39;125425;1096;103014;-74
2021/07/27 03:03:56;;;;;;;23.70;15.77;;;;;;;21.79;62.79;98643.07;125479;1096;103421;-76
2021/07/27 03:06:24;;;;;;;26.23;15.87;;;;;;;21.78;63.04;98654.93;125489;1096;103103;-75
2021/07/27 03:11:25;;;;;;;27.43;16.57;;;;;;;21.78;63.42;98669.28;125471;1096;103015;-74
2021/07/27 03:13:55;;;;;;;29.50;16.37;;;;;;;21.75;63.41;98663.44;125491;1096;102943;-75
2021/07/27 03:16:25;;;;;;;25.80;16.90;;;;;;;21.72;63.76;98683.59;125512;1096;103087;-74
2021/07/27 03:18:56;;;;;;;29.30;17.20;;;;;;;21.73;63.17;98695.27;125453;1096;102917;-73
2021/07/27 03:21:26;;;;;;;26.50;15.93;;;;;;;21.74;63.42;98705.06;125409;1097;103156;-75
2021/07/27 03:23:55;;;;;;;25.67;15.67;;;;;;;21.72;63.39;98718.78;125475;1097;102939;-72
2021/07/27 03:26:26;;;;;;;25.83;17.00;;;;;;;21.73;63.44;98706.09;125469;1095;102991;-74
2021/07/27 03:28:54;;;;;;;25.60;16.77;;;;;;;21.74;63.61;98719.42;125508;1097;103001;-74
2021/07/27 03:31:23;;;;;;;27.63;17.67;;;;;;;21.72;63.25;98694.42;125473;1097;102980;-73
2021/07/27 03:33:51;;;;;;;27.00;16.60;;;;;;;21.73;63.45;98706.92;125465;1097;102948;-74
2021/07/27 03:36:19;;;;;;;26.03;15.83;;;;;;;21.73;63.41;98714.22;125479;1096;103002;-73
2021/07/27 03:38:49;;;;;;;25.87;15.57;;;;;;;21.73;63.83;98712.33;125446;1097;103068;-74
2021/07/27 03:41:19;;;;;;;26.43;16.53;;;;;;;21.73;63.42;98711.51;125483;1096;102916;-72
2021/07/27 03:43:49;;;;;;;26.47;16.93;;;;;;;21.75;63.62;98706.74;125438;1098;103006;-74
2021/07/27 03:46:17;;;;;;;26.13;16.33;;;;;;;21.77;63.78;98704.69;125397;1097;103144;-74
2021/07/27 03:48:46;;;;;;;26.73;16.90;;;;;;;21.79;64.06;98694.50;125409;1100;103097;-74
2021/07/27 03:51:14;;;;;;;25.90;15.97;;;;;;;21.80;63.91;98699.70;125492;1096;103042;-74
2021/07/27 03:53:43;;;;;;;27.77;15.97;;;;;;;21.83;63.90;98703.88;125437;1097;103620;-75
2021/07/27 03:56:12;;;;;;;25.83;16.30;;;;;;;21.85;64.34;98705.38;125437;1096;103164;-73
2021/07/27 03:58:43;;;;;;;23.70;15.80;;;;;;;21.88;63.86;98697.91;125404;1097;102920;-74
2021/07/27 04:01:12;;;;;;;25.10;15.45;;;;;;;21.88;63.88;98693.31;125433;1096;103012;-74
2021/07/27 04:03:40;;;;;;;24.95;15.80;;;;;;;21.89;63.93;98691.46;125454;1096;103093;-74
2021/07/27 04:06:09;;;;;;;23.33;15.30;;;;;;;21.85;64.21;98697.27;125590;1096;103026;-74
2021/07/27 04:08:37;;;;;;;25.50;16.20;;;;;;;21.86;64.15;98698.94;125558;1096;102940;-77
2021/07/27 04:11:09;;;;;;;24.67;16.27;;;;;;;21.89;64.21;98694.98;125669;1096;102922;-80
2021/07/27 04:13:37;;;;;;;27.57;16.23;;;;;;;21.92;64.03;98694.61;125635;1096;102952;-75
2021/07/27 04:16:06;;;;;;;24.53;15.60;;;;;;;21.94;64.31;98697.13;125438;1095;103068;-74
2021/07/27 04:18:34;;;;;;;32.17;17.43;;;;;;;21.97;64.38;98694.04;125475;1096;102929;-73
2021/07/27 04:21:04;;;;;;;27.83;16.23;;;;;;;21.98;64.59;98693.01;125512;1097;103134;-73
2021/07/27 04:23:33;;;;;;;23.03;15.03;;;;;;;21.99;64.15;98698.21;125404;1096;103450;-74
2021/07/27 04:26:03;;;;;;;24.40;14.33;;;;;;;22.02;64.62;98705.09;125469;1096;102929;-83
2021/07/27 04:28:31;;;;;;;24.63;15.40;;;;;;;22.05;64.42;98710.13;125637;1096;102932;-82
2021/07/27 04:31:01;;;;;;;25.10;15.83;;;;;;;22.08;64.43;98707.02;125610;1096;102920;-86
2021/07/27 04:33:31;;;;;;;23.17;14.57;;;;;;;22.13;64.48;98698.33;125663;1096;103004;-86
2021/07/27 04:35:59;;;;;;;22.43;13.97;;;;;;;22.16;64.10;98693.35;125692;1095;103064;-83
2021/07/27 04:38:28;;;;;;;25.33;14.53;;;;;;;22.20;64.68;98692.95;125557;1096;103799;-78
2021/07/27 04:40:57;;;;;;;26.10;14.47;;;;;;;22.26;64.42;98695.70;125395;1095;103094;-77
2021/07/27 04:43:29;;;;;;;25.77;14.50;;;;;;;22.30;64.75;98694.28;125430;1095;103010;-78
2021/07/27 04:46:01;;;;;;;22.13;14.37;;;;;;;22.35;64.21;98691.00;125373;1096;102997;-77
2021/07/27 04:48:31;;;;;;;23.30;13.80;;;;;;;22.39;64.23;98692.28;125323;1096;102923;-78
2021/07/27 04:50:59;;;;;;;23.90;13.77;;;;;;;22.39;64.19;98684.16;125536;1096;102936;-77
2021/07/27 04:53:30;;;;;;;24.60;14.40;;;;;;;22.42;64.36;98691.86;125416;1096;103035;-77
2021/07/27 04:56:02;;;;;;;24.60;15.37;;;;;;;22.49;64.58;98691.11;125516;1097;102916;-79
2021/07/27 04:58:48;;;;;;;23.37;14.40;;;;;;;22.54;64.72;98686.78;125328;1096;102988;-79
2021/07/27 05:01:16;;;;;;;25.83;14.30;;;;;;;22.60;64.42;98685.99;125435;1096;103063;-78
2021/07/27 05:03:45;;;;;;;22.50;13.80;;;;;;;22.63;64.24;98697.44;125381;1096;102998;-78
2021/07/27 05:06:14;;;;;;;23.03;13.77;;;;;;;22.62;64.43;98707.46;125406;1095;103009;-79
2021/07/27 05:08:42;;;;;;;23.47;13.63;;;;;;;22.68;64.33;98711.23;125456;1096;102951;-79
2021/07/27 05:11:11;;;;;;;22.83;14.53;;;;;;;22.75;64.38;98714.83;125435;1096;102994;-79
2021/07/27 05:13:39;;;;;;;24.23;14.80;;;;;;;22.82;64.53;98714.89;125352;1096;102942;-81
2021/07/27 05:16:10;;;;;;;24.93;15.53;;;;;;;22.86;64.42;98695.30;125477;1096;102944;-79
2021/07/27 05:18:38;;;;;;;26.23;14.70;;;;;;;22.90;64.66;98693.01;125479;1096;103001;-78
2021/07/27 05:21:07;;;;;;;24.30;14.90;;;;;;;22.90;64.12;98696.57;125453;1096;102941;-78
2021/07/27 05:23:36;;;;;;;24.63;13.60;;;;;;;22.89;64.77;98702.18;125410;1096;102959;-78
2021/07/27 05:26:05;;;;;;;22.87;14.80;;;;;;;22.94;64.82;98704.31;125464;1096;103073;-78
2021/07/27 05:28:35;;;;;;;28.53;15.10;;;;;;;22.99;64.54;98704.55;125446;1096;103127;-76
2021/07/27 05:31:05;;;;;;;26.13;14.90;;;;;;;23.03;64.85;98695.80;125536;1095;102952;-78
2021/07/27 05:33:34;;;;;;;22.97;14.13;;;;;;;23.11;64.81;98702.09;125588;1095;102916;-77
2021/07/27 05:36:06;;;;;;;24.47;14.43;;;;;;;23.17;64.40;98701.28;125541;1096;102998;-76
2021/07/27 05:38:35;;;;;;;24.18;15.65;;;;;;;23.23;64.37;98692.34;125477;1097;102972;-78
2021/07/27 05:41:03;;;;;;;24.80;15.70;;;;;;;23.30;64.46;98692.38;125490;1096;102916;-79
2021/07/27 05:43:32;;;;;;;30.13;15.17;;;;;;;23.34;64.55;98691.76;125421;1096;102916;-76
2021/07/27 05:46:03;;;;;;;24.07;15.37;;;;;;;23.39;64.96;98693.88;125430;1096;103068;-78
2021/07/27 05:48:32;;;;;;;27.70;15.20;;;;;;;23.46;64.47;98688.45;125430;1096;103017;-80
2021/07/27 05:51:03;;;;;;;26.00;15.23;;;;;;;23.51;64.53;98679.69;125365;1096;102924;-79
2021/07/27 05:53:32;;;;;;;25.50;14.60;;;;;;;23.57;64.42;98690.58;125441;1096;102911;-79
2021/07/27 05:56:01;;;;;;;23.87;14.73;;;;;;;23.62;64.58;98690.80;125502;1095;102923;-82
2021/07/27 05:58:33;;;;;;;39.20;28.53;;;;;;;23.69;64.46;98685.38;125564;1095;103055;-79
2021/07/27 06:01:01;;;;;;;33.70;20.25;;;;;;;23.74;64.42;98692.89;125565;1096;102942;-82
2021/07/27 06:03:30;;;;;;;28.70;16.50;;;;;;;23.79;64.50;98679.53;125578;1097;103159;-81
2021/07/27 06:05:59;;;;;;;26.37;15.67;;;;;;;23.84;64.32;98678.93;125465;1095;103004;-79
2021/07/27 06:08:27;;;;;;;26.87;15.60;;;;;;;23.87;64.40;98671.19;125489;1097;103034;-77
2021/07/27 06:10:56;;;;;;;23.87;14.77;;;;;;;23.92;64.50;98671.41;125441;1095;102919;-80
2021/07/27 06:13:24;;;;;;;23.10;14.90;;;;;;;23.93;64.74;98673.08;125522;1096;103010;-78
2021/07/27 06:15:52;;;;;;;24.30;15.70;;;;;;;23.95;64.26;98675.57;125399;1096;103675;-78
2021/07/27 06:18:22;;;;;;;24.30;13.73;;;;;;;24.05;64.64;98678.74;125430;1096;103074;-80
2021/07/27 06:20:50;;;;;;;28.70;15.00;;;;;;;24.07;64.49;98676.66;125405;1096;103068;-82
2021/07/27 06:23:18;;;;;;;23.30;14.20;;;;;;;24.13;64.13;98682.30;125402;1095;103068;-79
2021/07/27 06:25:47;;;;;;;23.00;13.23;;;;;;;24.18;64.37;98683.33;125586;1097;102976;-81
2021/07/27 06:28:16;;;;;;;21.37;12.73;;;;;;;24.20;64.10;98681.24;125552;1095;102942;-80
2021/07/27 06:30:45;;;;;;;26.60;13.60;;;;;;;24.22;64.43;98678.33;125578;1095;102920;-82
2021/07/27 06:33:14;;;;;;;24.67;13.27;;;;;;;24.23;64.56;98675.39;125546;1096;102922;-81
2021/07/27 06:35:42;;;;;;;22.70;13.50;;;;;;;24.28;64.39;98673.92;125639;1096;102916;-82
2021/07/27 06:38:10;;;;;;;27.73;13.63;;;;;;;24.36;64.63;98673.71;125623;1095;102999;-82
2021/07/27 06:40:39;;;;;;;25.13;13.70;;;;;;;24.44;64.58;98673.50;125498;1096;102994;-82
2021/07/27 06:43:07;;;;;;;22.20;13.13;;;;;;;24.50;64.59;98671.80;125567;1096;103039;-75
2021/07/27 06:45:36;;;;;;;26.65;12.90;;;;;;;24.59;64.08;98680.56;125505;1096;104052;-74
2021/07/27 06:48:05;;;;;;;27.40;13.00;;;;;;;24.68;64.39;98682.01;125494;1096;102945;-76
2021/07/27 06:50:33;;;;;;;20.60;12.00;;;;;;;24.78;64.38;98673.42;125441;1096;103007;-74
2021/07/27 06:53:02;;;;;;;23.60;12.83;;;;;;;24.88;64.25;98671.09;125457;1095;102922;-76
2021/07/27 06:55:32;;;;;;;22.37;13.17;;;;;;;24.97;64.35;98669.81;125527;1095;103002;-74
2021/07/27 06:58:00;;;;;;;22.80;11.93;;;;;;;25.10;64.56;98671.64;125490;1096;103022;-70
2021/07/27 07:00:29;;;;;;;25.57;12.30;;;;;;;25.24;64.34;98669.69;125521;1095;103007;-75
2021/07/27 07:02:57;;;;;;;24.05;11.45;;;;;;;25.38;64.10;98658.73;125531;1096;103038;-80
2021/07/27 07:05:26;;;;;;;29.03;12.50;;;;;;;25.53;64.22;98672.08;125375;1096;103075;-76
2021/07/27 07:07:54;;;;;;;21.65;11.10;;;;;;;25.71;63.63;98671.33;125409;1096;102978;-76
2021/07/27 07:10:23;;;;;;;23.57;11.57;;;;;;;26.75;62.52;98664.54;125455;1096;103364;-74
2021/07/27 07:12:55;;;;;;;22.77;10.13;;;;;;;28.05;62.36;98669.72;125540;1096;102921;-71
2021/07/27 07:15:23;;;;;;;19.73;9.23;;;;;;;29.23;62.61;98672.59;125430;1096;103064;-74
2021/07/27 07:17:51;;;;;;;21.63;10.27;;;;;;;30.11;62.42;98666.81;125434;1097;103012;-73
2021/07/27 07:20:21;;;;;;;23.17;9.40;;;;;;;31.23;61.69;98664.22;125436;1096;103209;-74
2021/07/27 07:22:49;;;;;;;22.83;9.33;;;;;;;32.31;61.48;98662.51;125474;1096;103074;-76
2021/07/27 07:25:17;;;;;;;21.30;8.73;;;;;;;33.36;61.38;98657.22;125478;1096;103041;-72
2021/07/27 07:27:46;;;;;;;18.67;8.90;;;;;;;34.32;60.83;98652.30;125421;1097;103453;-71
2021/07/27 07:30:14;;;;;;;23.73;9.80;;;;;;;35.27;60.39;98661.66;125382;1097;103022;-74
2021/07/27 07:32:43;;;;;;;23.73;9.40;;;;;;;36.38;60.01;98661.41;125443;1096;103097;-73
2021/07/27 07:35:12;;;;;;;25.07;9.27;;;;;;;37.32;59.83;98656.42;125416;1096;103041;-74
2021/07/27 07:37:40;;;;;;;22.07;8.90;;;;;;;38.21;59.01;98673.38;125432;1097;102932;-77
2021/07/27 07:40:10;;;;;;;17.80;7.87;;;;;;;38.97;57.68;98669.47;125431;1097;102915;-70
2021/07/27 07:42:39;;;;;;;23.93;8.33;;;;;;;39.12;56.26;98675.84;125430;1097;103077;-72
2021/07/27 07:45:07;;;;;;;21.00;7.87;;;;;;;38.99;55.64;98669.14;125506;1095;103004;-71
2021/07/27 07:47:36;;;;;;;27.60;8.40;;;;;;;39.09;55.71;98668.13;125439;1097;103071;-72
2021/07/27 07:50:05;;;;;;;20.60;7.20;;;;;;;39.27;54.94;98669.92;125476;1095;102911;-69
2021/07/27 07:52:34;;;;;;;22.27;8.80;;;;;;;39.50;54.10;98674.73;125434;1095;103091;-70
2021/07/27 07:55:04;;;;;;;19.23;8.47;;;;;;;39.81;54.24;98666.50;125448;1095;102991;-74
2021/07/27 07:57:36;;;;;;;19.98;8.03;;;;;;;40.00;52.00;98669.09;125533;1096;103004;-70
2021/07/27 08:00:07;;;;;;;21.97;7.77;;;;;;;39.84;51.42;98671.44;125373;1096;103121;-70
2021/07/27 08:02:35;;;;;;;25.47;8.23;;;;;;;39.70;50.89;98678.98;125451;1097;102922;-71
2021/07/27 08:05:04;;;;;;;24.83;8.53;;;;;;;39.41;49.61;98675.47;125433;1097;102926;-69
2021/07/27 08:07:34;;;;;;;19.90;7.93;;;;;;;39.14;49.49;98670.77;125417;1097;103017;-70
2021/07/27 08:10:04;;;;;;;26.80;8.53;;;;;;;39.47;49.14;98673.41;125477;1095;103082;-69
2021/07/27 08:12:32;;;;;;;25.90;7.70;;;;;;;39.63;48.69;98684.16;125468;1096;102941;-69
2021/07/27 08:15:01;;;;;;;21.57;7.00;;;;;;;40.05;48.51;98682.05;125417;1096;103010;-70
2021/07/27 08:17:30;;;;;;;16.40;6.90;;;;;;;40.23;47.59;98694.14;125464;1096;102932;-73
2021/07/27 08:19:59;;;;;;;19.50;6.77;;;;;;;39.92;46.97;98689.34;125362;1095;102722;-70
2021/07/27 08:22:29;;;;;;;19.67;7.17;;;;;;;39.92;46.19;98691.31;125420;1096;102923;-70
2021/07/27 08:24:57;;;;;;;21.00;7.70;;;;;;;39.62;46.33;98694.48;125470;1095;103030;-68
2021/07/27 08:27:26;;;;;;;19.27;7.60;;;;;;;39.40;45.52;98701.64;125528;1096;102948;-69
2021/07/27 08:29:55;;;;;;;21.40;7.70;;;;;;;39.50;45.88;98700.61;125498;1096;103037;-69
2021/07/27 08:32:23;;;;;;;19.77;7.80;;;;;;;39.49;45.17;98703.69;125382;1096;103141;-72
2021/07/27 08:34:52;;;;;;;19.77;6.93;;;;;;;39.01;44.42;98708.58;125480;1096;103007;-74
2021/07/27 08:37:20;;;;;;;20.57;7.07;;;;;;;38.60;44.05;98701.03;125391;1096;102945;-73
2021/07/27 08:39:49;;;;;;;20.33;7.97;;;;;;;38.13;44.14;98707.38;125474;1095;103034;-73
2021/07/27 08:42:20;;;;;;;20.00;7.70;;;;;;;38.31;44.02;98713.20;125400;1096;102979;-74
2021/07/27 08:44:53;;;;;;;23.70;8.07;;;;;;;38.52;43.59;98722.02;125436;1096;103038;-75
2021/07/27 08:47:24;;;;;;;17.55;6.78;;;;;;;38.42;43.07;98721.06;125392;1096;102998;-72
2021/07/27 08:49:56;;;;;;;;;;;;;;;38.42;42.24;98721.06;125429;1096;103103;-72
2021/07/27 08:52:29;;;;;;;20.77;7.57;;;;;;;38.47;42.79;98722.95;125404;1096;102914;-70
2021/07/27 08:54:57;;;;;;;19.50;7.13;;;;;;;38.55;42.81;98729.73;125437;1096;103445;-72
2021/07/27 08:57:25;;;;;;;20.57;7.70;;;;;;;38.56;42.08;98726.64;125407;1095;103057;-77
2021/07/27 08:59:57;;;;;;;20.05;7.68;;;;;;;38.74;41.85;98728.81;125525;1095;103034;-72
2021/07/27 09:02:31;;;;;;;22.03;8.13;;;;;;;38.97;41.37;98721.45;125438;1095;103019;-73
2021/07/27 09:05:12;;;;;;;17.93;7.37;;;;;;;39.26;41.47;98728.66;125492;1096;102997;-75
2021/07/27 09:07:42;;;;;;;17.68;7.15;;;;;;;39.43;41.13;98712.14;125547;1095;102950;-75
2021/07/27 09:10:19;;;;;;;22.03;7.73;;;;;;;39.59;41.07;98711.80;125424;1095;103159;-76
2021/07/27 09:13:06;;;;;;;20.80;7.50;;;;;;;39.60;40.62;98714.27;125380;1097;103180;-69
2021/07/27 09:15:43;;;;;;;22.10;7.80;;;;;;;39.66;40.33;98714.98;125406;1097;102955;-72
2021/07/27 09:18:19;;;;;;;23.07;7.43;;;;;;;39.83;40.08;98719.06;125423;1096;102986;-70
2021/07/27 09:20:55;;;;;;;19.87;7.43;;;;;;;40.22;39.79;98713.97;125440;1096;102948;-73
2021/07/27 09:23:29;;;;;;;21.60;7.97;;;;;;;40.59;39.89;98718.25;125344;1094;102943;-72
2021/07/27 09:26:00;;;;;;;19.40;7.47;;;;;;;40.55;39.20;98720.06;125466;1095;102948;-71
2021/07/27 09:28:29;;;;;;;21.70;7.15;;;;;;;40.53;39.34;98718.72;125448;1096;103094;-69
2021/07/27 09:31:03;;;;;;;16.67;7.07;;;;;;;40.57;38.65;98722.52;125498;1096;103072;-71
2021/07/27 09:33:34;;;;;;;17.37;6.73;;;;;;;40.49;38.41;98722.14;125453;1095;103000;-72
2021/07/27 09:36:05;;;;;;;20.40;7.13;;;;;;;40.15;38.51;98734.70;125405;1096;103010;-72
2021/07/27 09:38:34;;;;;;;23.25;7.83;;;;;;;39.79;38.34;98729.17;125486;1095;103023;-72
2021/07/27 09:41:07;;;;;;;20.07;6.87;;;;;;;39.70;37.37;98731.86;125438;1096;102945;-71
2021/07/27 09:43:45;;;;;;;21.57;7.80;;;;;;;39.60;37.31;98736.52;125400;1096;103065;-72
2021/07/27 09:46:16;;;;;;;17.93;7.13;;;;;;;39.75;37.38;98728.97;125478;1096;102942;-72
2021/07/27 09:48:48;;;;;;;20.93;6.97;;;;;;;39.89;37.65;98726.16;125406;1096;103054;-69
2021/07/27 09:51:18;;;;;;;22.13;7.70;;;;;;;39.94;36.82;98737.17;125472;1095;102946;-73
2021/07/27 09:53:49;;;;;;;19.30;7.40;;;;;;;39.70;37.17;98734.64;125354;1096;103084;-74
2021/07/27 09:56:17;;;;;;;24.50;8.57;;;;;;;39.58;37.23;98738.80;125418;1096;103100;-72
2021/07/27 09:58:46;;;;;;;23.35;8.95;;;;;;;39.06;36.63;98744.62;125452;1096;102947;-73
2021/07/27 10:01:26;;;;;;;20.53;8.27;;;;;;;38.61;36.71;98747.97;125491;1096;103144;-74
2021/07/27 10:04:05;;;;;;;20.47;9.20;;;;;;;38.08;36.55;98738.03;125455;1096;103068;-70
2021/07/27 10:06:47;;;;;;;19.20;8.77;;;;;;;37.41;36.23;98736.17;125490;1096;103068;-70
2021/07/27 10:09:24;;;;;;;19.10;8.60;;;;;;;36.77;36.20;98740.80;125473;1096;102920;-75
2021/07/27 10:12:12;;;;;;;18.50;8.33;;;;;;;36.16;36.06;98751.30;125448;1096;103414;-72
2021/07/27 10:14:48;;;;;;;18.77;9.33;;;;;;;35.67;36.48;98750.23;125388;1096;103087;-75
2021/07/27 10:17:17;;;;;;;19.30;9.03;;;;;;;35.18;35.81;98760.95;125423;1096;103049;-75
2021/07/27 10:19:50;;;;;;;16.57;8.60;;;;;;;34.73;36.21;98755.25;125406;1096;103009;-72
2021/07/27 10:22:19;;;;;;;17.50;8.17;;;;;;;34.21;36.13;98759.13;125387;1094;103005;-73
2021/07/27 10:24:50;;;;;;;17.60;8.57;;;;;;;33.66;36.31;98751.29;125408;1096;102917;-73
2021/07/27 10:27:21;;;;;;;19.15;9.00;;;;;;;33.29;36.12;98752.25;125383;1096;102726;-73
2021/07/27 10:30:12;;;;;;;16.37;8.37;;;;;;;33.00;36.53;98758.19;125395;1097;103060;-72
2021/07/27 10:32:53;;;;;;;18.00;8.83;;;;;;;32.59;36.56;98754.06;125489;1097;103015;-73
2021/07/27 10:35:29;;;;;;;14.83;7.93;;;;;;;32.28;36.55;98762.09;125520;1097;103380;-73
2021/07/27 10:38:12;;;;;;;18.97;8.80;;;;;;;31.89;36.47;98765.00;125457;1096;103001;-74
2021/07/27 10:40:42;;;;;;;16.40;8.70;;;;;;;31.50;36.79;98754.11;125455;1096;103131;-74
2021/07/27 10:43:22;;;;;;;15.70;7.67;;;;;;;31.10;36.51;98765.14;125431;1096;102972;-72
2021/07/27 10:46:01;;;;;;;15.50;7.67;;;;;;;30.75;36.64;98774.54;125426;1097;103004;-71
2021/07/27 10:48:37;;;;;;;14.27;7.30;;;;;;;30.48;37.30;98771.62;125365;1097;102908;-70
2021/07/27 10:51:09;;;;;;;17.00;7.73;;;;;;;30.39;37.51;98769.28;125476;1097;103001;-75
2021/07/27 10:53:37;;;;;;;15.88;7.78;;;;;;;30.26;37.49;98762.22;125508;1095;102916;-72
2021/07/27 10:56:10;;;;;;;17.33;7.90;;;;;;;30.11;38.09;98754.57;125469;1096;103008;-73
2021/07/27 10:58:46;;;;;;;14.85;7.40;;;;;;;29.96;38.21;98754.25;125423;1097;103675;-73
2021/07/27 11:01:17;;;;;;;19.13;8.40;;;;;;;29.84;38.02;98752.41;125440;1095;103090;-75
2021/07/27 11:03:45;;;;;;;16.73;7.03;;;;;;;29.73;38.54;98742.35;125426;1096;102917;-76
2021/07/27 11:06:14;;;;;;;17.03;7.37;;;;;;;29.66;39.17;98755.36;125466;1096;103012;-79
2021/07/27 11:08:42;;;;;;;19.20;7.70;;;;;;;29.61;39.00;98750.59;125436;1097;103002;-81
2021/07/27 11:11:13;;;;;;;18.03;8.13;;;;;;;29.56;39.28;98759.56;125668;1095;103374;-80
2021/07/27 11:13:52;;;;;;;17.83;8.10;;;;;;;29.56;39.77;98764.19;125268;1094;103046;-80
2021/07/27 11:16:23;;;;;;;23.33;8.70;;;;;;;29.59;39.61;98766.45;125733;1096;103093;-86
2021/07/27 11:18:52;;;;;;;15.20;7.10;;;;;;;29.67;39.60;98774.28;125106;1096;102987;-84
2021/07/27 11:21:21;;;;;;;19.50;8.27;;;;;;;29.75;40.26;98774.98;125392;1095;103175;-83
2021/07/27 11:23:54;;;;;;;15.13;7.13;;;;;;;29.83;40.01;98780.08;125550;1096;102913;-83
2021/07/27 11:26:23;;;;;;;17.27;7.37;;;;;;;29.92;40.34;98764.90;125791;1096;102986;-83
2021/07/27 11:28:51;;;;;;;15.17;6.93;;;;;;;30.01;40.43;98768.09;125600;1096;102948;-83
2021/07/27 11:31:21;;;;;;;15.60;7.83;;;;;;;30.02;40.35;98772.50;125629;1096;102921;-83
2021/07/27 11:33:52;;;;;;;17.20;7.77;;;;;;;29.98;40.50;98772.14;125575;1096;102940;-85
2021/07/27 11:36:25;;;;;;;16.03;7.90;;;;;;;29.93;40.73;98773.94;125550;1096;103431;-84
2021/07/27 11:39:07;;;;;;;17.17;8.57;;;;;;;29.86;40.80;98774.10;125557;1096;102937;-85
2021/07/27 11:41:36;;;;;;;14.30;7.03;;;;;;;29.77;41.58;98768.16;125604;1096;102941;-84
2021/07/27 11:44:07;;;;;;;17.40;7.70;;;;;;;29.67;41.61;98771.55;125565;1096;103010;-84
2021/07/27 11:46:35;;;;;;;16.70;8.33;;;;;;;29.60;41.38;98770.03;125658;1096;102919;-84